createdAt,value
2023-01-19T00:03:40.806Z,6.43
2023-01-19T00:08:46.075Z,6.46
2023-01-19T00:13:51.105Z,6.59
2023-01-19T00:18:55.764Z,6.46
2023-01-19T00:23:58.878Z,6.35
2023-01-19T00:29:02.017Z,6.34
2023-01-19T00:34:07.844Z,6.41
2023-01-19T00:39:11.020Z,6.45
2023-01-19T00:44:14.264Z,6.33
2023-01-19T00:49:18.846Z,6.45
2023-01-19T00:54:22.003Z,6.55
2023-01-19T00:59:25.877Z,6.35
2023-01-19T01:04:30.425Z,6.48
2023-01-19T01:09:33.604Z,6.55
2023-01-19T01:14:36.927Z,6.51
2023-01-19T01:19:41.679Z,6.49
2023-01-19T01:24:44.957Z,6.45
2023-01-19T01:29:48.224Z,6.28
2023-01-19T01:34:52.773Z,6.19
2023-01-19T01:39:55.920Z,6.11
2023-01-19T01:45:00.972Z,6.09
2023-01-19T01:50:10.133Z,6.06
2023-01-19T01:55:14.679Z,6.21
2023-01-19T02:00:18.780Z,6.25
2023-01-19T02:05:27.334Z,6.24
2023-01-19T02:10:47.829Z,6.25
2023-01-19T02:15:52.920Z,6.34
2023-01-19T02:21:05.605Z,6.42
2023-01-19T02:26:12.703Z,6.17
2023-01-19T02:31:16.386Z,5.98
2023-01-19T02:36:23.997Z,6.07
2023-01-19T02:41:32.308Z,5.98
2023-01-19T02:46:35.869Z,6.16
2023-01-19T02:51:39.131Z,6.19
2023-01-19T02:57:18.517Z,6.33
2023-01-19T03:02:36.042Z,6.10
2023-01-19T03:07:50.550Z,6.16
2023-01-19T03:13:03.506Z,6.25
2023-01-19T03:18:11.989Z,5.92
2023-01-19T03:23:16.991Z,6.03
2023-01-19T03:28:24.246Z,5.75
2023-01-19T03:33:34.295Z,5.79
2023-01-19T03:38:39.607Z,6.10
2023-01-19T03:43:42.705Z,5.89
2023-01-19T03:48:48.584Z,5.97
2023-01-19T03:53:51.801Z,6.08
2023-01-19T03:58:56.266Z,6.12
2023-01-19T04:04:01.574Z,5.95
2023-01-19T04:09:04.729Z,6.01
2023-01-19T04:14:07.840Z,6.10
2023-01-19T04:19:12.458Z,6.00
2023-01-19T04:24:15.563Z,6.09
2023-01-19T04:29:18.716Z,6.01
2023-01-19T04:34:23.253Z,6.02
2023-01-19T04:39:26.590Z,6.05
2023-01-19T04:44:29.817Z,6.15
2023-01-19T04:49:34.352Z,6.13
2023-01-19T04:54:37.553Z,6.23
2023-01-19T04:59:40.674Z,6.19
2023-01-19T05:04:45.341Z,6.15
2023-01-19T05:09:48.463Z,6.07
2023-01-19T05:14:51.629Z,6.11
2023-01-19T05:19:56.191Z,6.07
2023-01-19T05:24:59.363Z,6.13
2023-01-19T05:30:04.845Z,6.12
2023-01-19T05:35:10.889Z,6.12
2023-01-19T05:40:14.332Z,6.24
2023-01-19T05:45:17.583Z,6.33
2023-01-19T05:50:22.147Z,6.36
2023-01-19T05:55:25.271Z,6.24
2023-01-19T06:00:29.267Z,6.25
2023-01-19T06:05:34.135Z,6.19
2023-01-19T06:10:37.399Z,6.09
2023-01-19T06:15:40.563Z,6.14
2023-01-19T06:20:45.109Z,6.11
2023-01-19T06:25:50.282Z,5.98
2023-01-19T06:30:55.067Z,6.11
2023-01-19T06:35:59.655Z,6.04
2023-01-19T06:41:04.072Z,6.05
2023-01-19T06:46:07.438Z,6.00
2023-01-19T06:51:12.018Z,6.14
2023-01-19T06:56:15.330Z,6.18
2023-01-19T07:01:18.756Z,6.21
2023-01-19T07:06:23.366Z,6.13
2023-01-19T07:11:31.904Z,6.12
2023-01-19T07:16:36.260Z,6.13
2023-01-19T07:21:40.843Z,6.09
2023-01-19T07:26:44.085Z,6.02
2023-01-19T07:31:48.998Z,6.09
2023-01-19T07:36:53.646Z,6.00
2023-01-19T07:41:56.767Z,6.06
2023-01-19T07:47:00.302Z,5.92
2023-01-19T07:52:04.873Z,6.12
2023-01-19T07:57:07.992Z,6.13
2023-01-19T08:02:11.802Z,6.18
2023-01-19T08:07:16.545Z,6.18
2023-01-19T08:12:19.745Z,6.30
2023-01-19T08:17:22.875Z,6.26
2023-01-19T08:22:27.439Z,6.27
2023-01-19T08:27:31.399Z,6.33
2023-01-19T08:32:34.555Z,6.40
2023-01-19T08:37:39.112Z,6.43
2023-01-19T08:42:42.205Z,6.44
2023-01-19T08:47:45.548Z,6.54
2023-01-19T08:52:50.085Z,6.58
2023-01-19T08:57:54.061Z,6.52
2023-01-19T09:02:57.440Z,6.62
2023-01-19T09:08:02.986Z,6.68
2023-01-19T09:13:08.656Z,6.66
2023-01-19T09:18:13.863Z,6.69
2023-01-19T09:23:20.344Z,6.76
2023-01-19T09:28:23.808Z,6.80
2023-01-19T09:33:27.330Z,6.87
2023-01-19T09:38:33.217Z,7.04
2023-01-19T09:43:42.831Z,7.04
2023-01-19T09:48:48.832Z,7.02
2023-01-19T09:53:59.076Z,7.05
2023-01-19T09:59:04.833Z,7.29
2023-01-19T10:04:30.492Z,7.63
2023-01-19T10:09:37.276Z,7.80
2023-01-19T10:14:46.660Z,7.99
2023-01-19T10:19:55.541Z,7.94
2023-01-19T10:25:06.053Z,8.00
2023-01-19T10:30:16.672Z,8.04
2023-01-19T10:35:24.651Z,7.95
2023-01-19T10:40:36.780Z,7.90
2023-01-19T10:45:39.995Z,7.95
2023-01-19T10:50:43.685Z,8.23
2023-01-19T10:55:48.322Z,8.28
2023-01-19T11:00:51.566Z,8.37
2023-01-19T11:05:54.745Z,8.48
2023-01-19T11:11:04.450Z,8.52
2023-01-19T11:16:16.072Z,8.51
2023-01-19T11:21:26.000Z,8.42
2023-01-19T11:26:34.138Z,8.48
2023-01-19T11:31:37.564Z,8.69
2023-01-19T11:36:40.701Z,8.89
2023-01-19T11:41:49.667Z,9.18
2023-01-19T11:46:57.524Z,9.48
2023-01-19T11:52:05.537Z,9.73
2023-01-19T11:57:15.170Z,9.92
2023-01-19T12:02:25.974Z,10.01
2023-01-19T12:07:35.073Z,10.08
2023-01-19T12:12:41.070Z,10.41
2023-01-19T12:17:48.786Z,10.54
2023-01-19T12:22:59.708Z,10.48
2023-01-19T12:28:05.055Z,10.36
2023-01-19T12:33:34.627Z,10.34
2023-01-19T12:38:44.362Z,10.18
2023-01-19T12:43:49.403Z,10.06
2023-01-19T12:48:53.627Z,10.20
2023-01-19T12:53:59.825Z,10.19
2023-01-19T12:59:06.289Z,10.17
2023-01-19T13:04:33.105Z,10.31
2023-01-19T13:09:38.314Z,10.40
2023-01-19T13:14:44.642Z,10.36
2023-01-19T13:19:55.124Z,10.28
2023-01-19T13:25:11.663Z,10.29
2023-01-19T13:30:20.964Z,10.33
2023-01-19T13:35:25.051Z,10.34
2023-01-19T13:40:37.017Z,10.46
2023-01-19T13:45:42.282Z,10.53
2023-01-19T13:50:58.533Z,10.51
2023-01-19T13:56:10.095Z,10.61
2023-01-19T14:01:26.134Z,10.61
2023-01-19T14:06:35.982Z,10.54
2023-01-19T14:11:39.868Z,10.60
2023-01-19T14:16:44.441Z,10.70
2023-01-19T14:21:47.574Z,10.77
2023-01-19T14:26:52.845Z,10.80
2023-01-19T14:32:15.564Z,10.83
2023-01-19T14:37:24.782Z,10.83
2023-01-19T14:42:30.591Z,10.80
2023-01-19T14:47:40.883Z,10.91
2023-01-19T14:52:49.970Z,10.99
2023-01-19T14:57:53.092Z,11.07
2023-01-19T15:02:57.627Z,10.99
2023-01-19T15:08:03.138Z,10.95
2023-01-19T15:13:06.315Z,11.06
2023-01-19T15:18:17.467Z,11.07
2023-01-19T15:23:20.614Z,11.17
2023-01-19T15:28:23.768Z,11.14
2023-01-19T15:33:30.674Z,11.18
2023-01-19T15:38:33.783Z,11.25
2023-01-19T15:43:36.923Z,11.22
2023-01-19T15:48:41.482Z,11.26
2023-01-19T15:53:45.602Z,11.28
2023-01-19T15:58:49.088Z,11.32
2023-01-19T16:03:53.652Z,11.28
2023-01-19T16:09:01.123Z,11.26
2023-01-19T16:14:04.440Z,11.33
2023-01-19T16:19:08.975Z,11.47
2023-01-19T16:24:12.131Z,11.47
2023-01-19T16:29:15.307Z,11.42
2023-01-19T16:34:19.853Z,11.49
2023-01-19T16:39:23.049Z,11.44
2023-01-19T16:44:26.266Z,11.52
2023-01-19T16:49:30.911Z,11.53
2023-01-19T16:54:34.406Z,11.51
2023-01-19T16:59:39.556Z,11.55
2023-01-19T17:04:44.140Z,11.50
2023-01-19T17:09:47.287Z,11.55
2023-01-19T17:14:50.414Z,11.58
2023-01-19T17:19:54.956Z,11.62
2023-01-19T17:24:58.063Z,11.60
2023-01-19T17:30:01.215Z,11.68
2023-01-19T17:35:06.433Z,11.67
2023-01-19T17:40:11.395Z,11.67
2023-01-19T17:45:14.810Z,11.73
2023-01-19T17:50:19.529Z,11.75
2023-01-19T17:55:22.643Z,11.86
2023-01-19T18:00:25.924Z,11.84
2023-01-19T18:05:30.540Z,11.92
2023-01-19T18:10:33.702Z,11.95
2023-01-19T18:15:36.840Z,11.87
2023-01-19T18:20:43.150Z,11.91
2023-01-19T18:25:46.308Z,11.90
2023-01-19T18:30:49.490Z,11.90
2023-01-19T18:35:54.088Z,11.90
2023-01-19T18:41:05.090Z,11.95
2023-01-19T18:46:08.770Z,12.08
2023-01-19T18:51:15.513Z,12.09
2023-01-19T18:56:18.687Z,12.07
2023-01-19T19:01:24.371Z,12.01
2023-01-19T19:06:29.254Z,12.00
2023-01-19T19:11:32.554Z,12.01
2023-01-19T19:16:38.583Z,11.97
2023-01-19T19:21:44.758Z,12.02
2023-01-19T19:26:47.914Z,12.08
2023-01-19T19:31:51.197Z,12.07
2023-01-19T19:36:55.742Z,12.08
2023-01-19T19:41:58.885Z,12.05
2023-01-19T19:47:02.133Z,12.06
2023-01-19T19:52:06.772Z,12.09
2023-01-19T19:57:10.136Z,12.14
2023-01-19T20:02:13.835Z,12.23
2023-01-19T20:07:18.438Z,12.22
2023-01-19T20:12:21.712Z,12.21
2023-01-19T20:17:24.951Z,12.19
2023-01-19T20:22:29.552Z,12.17
2023-01-19T20:27:32.829Z,12.15
2023-01-19T20:32:36.040Z,12.15
2023-01-19T20:37:40.699Z,12.17
2023-01-19T20:42:44.665Z,12.20
2023-01-19T20:47:47.942Z,12.24
2023-01-19T20:52:52.601Z,12.28
2023-01-19T20:57:55.852Z,12.27
2023-01-19T21:02:59.504Z,12.29
2023-01-19T21:08:06.077Z,12.32
2023-01-19T21:13:09.346Z,12.31
2023-01-19T21:18:12.587Z,12.32
2023-01-19T21:23:19.213Z,12.39
2023-01-19T21:28:23.168Z,12.38
2023-01-19T21:33:26.507Z,12.38
2023-01-19T21:38:31.181Z,12.35
2023-01-19T21:43:36.495Z,12.38
2023-01-19T21:48:39.744Z,12.41
2023-01-19T21:53:44.672Z,12.40
2023-01-19T21:58:47.996Z,12.44
2023-01-19T22:03:55.114Z,12.50
2023-01-19T22:09:00.961Z,12.48
2023-01-19T22:14:04.209Z,12.49
2023-01-19T22:19:08.441Z,12.53
2023-01-19T22:24:13.275Z,12.51
2023-01-19T22:29:16.535Z,12.49
2023-01-19T22:34:19.790Z,12.45
2023-01-19T22:39:24.498Z,12.46
2023-01-19T22:44:27.765Z,12.42
2023-01-19T22:49:31.235Z,12.52
2023-01-19T22:54:36.031Z,12.65
2023-01-19T22:59:39.301Z,12.64
2023-01-19T23:04:42.556Z,12.67
2023-01-19T23:09:47.172Z,12.64
2023-01-19T23:14:50.437Z,12.63
2023-01-19T23:19:53.712Z,12.53
2023-01-19T23:24:58.301Z,12.51
2023-01-19T23:30:01.566Z,12.66
2023-01-19T23:35:05.422Z,12.64
2023-01-19T23:40:11.482Z,12.71
2023-01-19T23:45:15.030Z,12.74
2023-01-19T23:50:19.661Z,12.80
2023-01-19T23:55:24.304Z,12.79
